sensor_id;sensor_type;location;lat;lon;timestamp;P1;durP1;ratioP1;P2;durP2;ratioP2
7383;SDS011;3733;47.994;8.820;2023-07-31T00:00:24;3.90;;;2.30;;
7383;SDS011;3733;47.994;8.820;2023-07-31T00:02:49;3.87;;;2.20;;
7383;SDS011;3733;47.994;8.820;2023-07-31T00:05:17;5.80;;;2.80;;
7383;SDS011;3733;47.994;8.820;2023-07-31T00:07:42;3.80;;;2.63;;
7383;SDS011;3733;47.994;8.820;2023-07-31T00:10:08;4.70;;;2.70;;
7383;SDS011;3733;47.994;8.820;2023-07-31T00:12:34;3.17;;;2.50;;
7383;SDS011;3733;47.994;8.820;2023-07-31T00:14:59;3.73;;;2.47;;
7383;SDS011;3733;47.994;8.820;2023-07-31T00:17:25;3.43;;;2.57;;
7383;SDS011;3733;47.994;8.820;2023-07-31T00:19:50;6.83;;;2.63;;
7383;SDS011;3733;47.994;8.820;2023-07-31T00:22:16;4.00;;;2.87;;
7383;SDS011;3733;47.994;8.820;2023-07-31T00:24:41;2.33;;;2.13;;
7383;SDS011;3733;47.994;8.820;2023-07-31T00:27:07;6.13;;;3.03;;
7383;SDS011;3733;47.994;8.820;2023-07-31T00:29:33;2.80;;;2.50;;
7383;SDS011;3733;47.994;8.820;2023-07-31T00:31:58;3.97;;;2.67;;
7383;SDS011;3733;47.994;8.820;2023-07-31T00:34:24;7.63;;;2.87;;
7383;SDS011;3733;47.994;8.820;2023-07-31T00:36:49;6.00;;;3.10;;
7383;SDS011;3733;47.994;8.820;2023-07-31T00:39:15;2.53;;;2.33;;
7383;SDS011;3733;47.994;8.820;2023-07-31T00:41:40;4.50;;;2.47;;
7383;SDS011;3733;47.994;8.820;2023-07-31T00:44:06;3.67;;;2.50;;
7383;SDS011;3733;47.994;8.820;2023-07-31T00:46:31;3.00;;;2.43;;
7383;SDS011;3733;47.994;8.820;2023-07-31T00:48:57;3.97;;;2.67;;
7383;SDS011;3733;47.994;8.820;2023-07-31T00:51:24;4.53;;;2.80;;
7383;SDS011;3733;47.994;8.820;2023-07-31T00:53:50;3.07;;;2.77;;
7383;SDS011;3733;47.994;8.820;2023-07-31T00:56:15;3.57;;;2.57;;
7383;SDS011;3733;47.994;8.820;2023-07-31T00:58:41;7.70;;;2.70;;
7383;SDS011;3733;47.994;8.820;2023-07-31T01:01:07;3.43;;;2.60;;
7383;SDS011;3733;47.994;8.820;2023-07-31T01:03:32;9.50;;;3.30;;
7383;SDS011;3733;47.994;8.820;2023-07-31T01:06:14;5.03;;;2.40;;
7383;SDS011;3733;47.994;8.820;2023-07-31T01:11:28;8.43;;;2.80;;
7383;SDS011;3733;47.994;8.820;2023-07-31T01:14:06;4.00;;;2.67;;
7383;SDS011;3733;47.994;8.820;2023-07-31T01:16:32;2.60;;;2.33;;
7383;SDS011;3733;47.994;8.820;2023-07-31T01:18:58;4.67;;;2.80;;
7383;SDS011;3733;47.994;8.820;2023-07-31T01:21:40;4.83;;;3.53;;
7383;SDS011;3733;47.994;8.820;2023-07-31T01:27:30;4.60;;;2.53;;
7383;SDS011;3733;47.994;8.820;2023-07-31T01:30:00;3.23;;;2.73;;
7383;SDS011;3733;47.994;8.820;2023-07-31T01:32:35;4.87;;;2.60;;
7383;SDS011;3733;47.994;8.820;2023-07-31T01:35:04;2.83;;;2.57;;
7383;SDS011;3733;47.994;8.820;2023-07-31T01:37:30;3.70;;;2.43;;
7383;SDS011;3733;47.994;8.820;2023-07-31T01:39:56;3.43;;;2.70;;
7383;SDS011;3733;47.994;8.820;2023-07-31T01:42:22;3.50;;;2.80;;
7383;SDS011;3733;47.994;8.820;2023-07-31T01:44:47;6.93;;;3.50;;
7383;SDS011;3733;47.994;8.820;2023-07-31T01:47:13;4.20;;;3.33;;
7383;SDS011;3733;47.994;8.820;2023-07-31T01:49:38;3.70;;;3.20;;
7383;SDS011;3733;47.994;8.820;2023-07-31T01:52:04;6.03;;;2.93;;
7383;SDS011;3733;47.994;8.820;2023-07-31T01:54:30;4.30;;;2.43;;
7383;SDS011;3733;47.994;8.820;2023-07-31T01:56:56;3.37;;;2.40;;
7383;SDS011;3733;47.994;8.820;2023-07-31T01:59:21;4.93;;;2.57;;
7383;SDS011;3733;47.994;8.820;2023-07-31T02:01:47;2.73;;;2.53;;
7383;SDS011;3733;47.994;8.820;2023-07-31T02:04:13;6.77;;;2.60;;
7383;SDS011;3733;47.994;8.820;2023-07-31T02:06:38;6.40;;;2.63;;
7383;SDS011;3733;47.994;8.820;2023-07-31T02:09:04;5.70;;;3.80;;
7383;SDS011;3733;47.994;8.820;2023-07-31T02:11:30;8.53;;;2.43;;
7383;SDS011;3733;47.994;8.820;2023-07-31T02:13:55;3.83;;;2.77;;
7383;SDS011;3733;47.994;8.820;2023-07-31T02:16:21;3.70;;;2.63;;
7383;SDS011;3733;47.994;8.820;2023-07-31T02:18:46;6.33;;;2.47;;
7383;SDS011;3733;47.994;8.820;2023-07-31T02:21:12;2.97;;;2.47;;
7383;SDS011;3733;47.994;8.820;2023-07-31T02:23:38;5.50;;;2.50;;
7383;SDS011;3733;47.994;8.820;2023-07-31T02:26:03;4.40;;;3.40;;
7383;SDS011;3733;47.994;8.820;2023-07-31T02:28:29;3.93;;;2.80;;
7383;SDS011;3733;47.994;8.820;2023-07-31T02:30:55;7.93;;;2.90;;
7383;SDS011;3733;47.994;8.820;2023-07-31T02:33:20;8.53;;;2.77;;
7383;SDS011;3733;47.994;8.820;2023-07-31T02:35:46;4.17;;;2.73;;
7383;SDS011;3733;47.994;8.820;2023-07-31T02:38:11;8.40;;;2.90;;
7383;SDS011;3733;47.994;8.820;2023-07-31T02:40:37;2.97;;;2.70;;
7383;SDS011;3733;47.994;8.820;2023-07-31T02:43:04;7.63;;;2.93;;
7383;SDS011;3733;47.994;8.820;2023-07-31T02:45:29;4.50;;;2.90;;
7383;SDS011;3733;47.994;8.820;2023-07-31T02:47:55;3.33;;;2.43;;
7383;SDS011;3733;47.994;8.820;2023-07-31T02:50:20;3.07;;;2.70;;
7383;SDS011;3733;47.994;8.820;2023-07-31T02:52:46;4.43;;;2.80;;
7383;SDS011;3733;47.994;8.820;2023-07-31T02:55:11;6.53;;;3.27;;
7383;SDS011;3733;47.994;8.820;2023-07-31T02:57:37;5.93;;;2.73;;
7383;SDS011;3733;47.994;8.820;2023-07-31T03:00:03;4.63;;;3.07;;
7383;SDS011;3733;47.994;8.820;2023-07-31T03:02:31;4.60;;;3.47;;
7383;SDS011;3733;47.994;8.820;2023-07-31T03:04:57;3.13;;;2.63;;
7383;SDS011;3733;47.994;8.820;2023-07-31T03:07:23;2.83;;;2.50;;
7383;SDS011;3733;47.994;8.820;2023-07-31T03:09:48;5.23;;;2.80;;
7383;SDS011;3733;47.994;8.820;2023-07-31T03:12:14;6.33;;;2.97;;
7383;SDS011;3733;47.994;8.820;2023-07-31T03:14:40;4.10;;;2.90;;
7383;SDS011;3733;47.994;8.820;2023-07-31T03:17:05;3.10;;;2.73;;
7383;SDS011;3733;47.994;8.820;2023-07-31T03:19:31;4.67;;;3.03;;
7383;SDS011;3733;47.994;8.820;2023-07-31T03:21:58;3.53;;;2.60;;
7383;SDS011;3733;47.994;8.820;2023-07-31T03:24:24;6.73;;;2.77;;
7383;SDS011;3733;47.994;8.820;2023-07-31T03:26:49;5.17;;;3.00;;
7383;SDS011;3733;47.994;8.820;2023-07-31T03:29:15;5.10;;;2.90;;
7383;SDS011;3733;47.994;8.820;2023-07-31T03:31:41;7.70;;;2.93;;
7383;SDS011;3733;47.994;8.820;2023-07-31T03:34:06;4.93;;;3.00;;
7383;SDS011;3733;47.994;8.820;2023-07-31T03:36:32;3.33;;;3.00;;
7383;SDS011;3733;47.994;8.820;2023-07-31T03:38:57;5.70;;;3.00;;
7383;SDS011;3733;47.994;8.820;2023-07-31T03:41:23;5.47;;;3.17;;
7383;SDS011;3733;47.994;8.820;2023-07-31T03:43:49;6.30;;;2.83;;
7383;SDS011;3733;47.994;8.820;2023-07-31T03:46:20;6.63;;;3.30;;
7383;SDS011;3733;47.994;8.820;2023-07-31T03:48:47;6.20;;;3.03;;
7383;SDS011;3733;47.994;8.820;2023-07-31T03:51:13;6.60;;;3.60;;
7383;SDS011;3733;47.994;8.820;2023-07-31T03:53:38;3.43;;;3.13;;
7383;SDS011;3733;47.994;8.820;2023-07-31T03:56:04;4.60;;;2.70;;
7383;SDS011;3733;47.994;8.820;2023-07-31T03:58:29;5.90;;;3.40;;
7383;SDS011;3733;47.994;8.820;2023-07-31T04:00:55;3.50;;;2.70;;
7383;SDS011;3733;47.994;8.820;2023-07-31T04:03:20;9.63;;;3.03;;
7383;SDS011;3733;47.994;8.820;2023-07-31T04:05:46;8.30;;;3.30;;
7383;SDS011;3733;47.994;8.820;2023-07-31T04:08:12;3.33;;;2.60;;
7383;SDS011;3733;47.994;8.820;2023-07-31T04:10:37;5.90;;;3.10;;
7383;SDS011;3733;47.994;8.820;2023-07-31T04:13:03;5.63;;;3.00;;
7383;SDS011;3733;47.994;8.820;2023-07-31T04:15:28;7.33;;;3.07;;
7383;SDS011;3733;47.994;8.820;2023-07-31T04:17:54;3.43;;;2.33;;
7383;SDS011;3733;47.994;8.820;2023-07-31T04:20:20;7.13;;;3.20;;
7383;SDS011;3733;47.994;8.820;2023-07-31T04:22:45;5.60;;;3.10;;
7383;SDS011;3733;47.994;8.820;2023-07-31T04:25:11;16.93;;;2.87;;
7383;SDS011;3733;47.994;8.820;2023-07-31T04:27:36;6.50;;;3.10;;
7383;SDS011;3733;47.994;8.820;2023-07-31T04:30:02;3.40;;;2.97;;
7383;SDS011;3733;47.994;8.820;2023-07-31T04:32:28;5.23;;;3.17;;
7383;SDS011;3733;47.994;8.820;2023-07-31T04:34:54;6.83;;;3.30;;
7383;SDS011;3733;47.994;8.820;2023-07-31T04:37:20;4.10;;;2.87;;
7383;SDS011;3733;47.994;8.820;2023-07-31T04:39:46;5.60;;;2.83;;
7383;SDS011;3733;47.994;8.820;2023-07-31T04:42:11;11.10;;;3.17;;
7383;SDS011;3733;47.994;8.820;2023-07-31T04:44:37;5.33;;;3.23;;
7383;SDS011;3733;47.994;8.820;2023-07-31T04:47:03;4.30;;;3.00;;
7383;SDS011;3733;47.994;8.820;2023-07-31T04:49:28;6.70;;;3.20;;
7383;SDS011;3733;47.994;8.820;2023-07-31T04:51:54;4.17;;;3.00;;
7383;SDS011;3733;47.994;8.820;2023-07-31T04:54:19;7.77;;;4.37;;
7383;SDS011;3733;47.994;8.820;2023-07-31T04:56:45;8.40;;;4.00;;
7383;SDS011;3733;47.994;8.820;2023-07-31T04:59:11;7.20;;;3.20;;
7383;SDS011;3733;47.994;8.820;2023-07-31T05:01:36;6.87;;;3.00;;
7383;SDS011;3733;47.994;8.820;2023-07-31T05:04:02;4.57;;;3.37;;
7383;SDS011;3733;47.994;8.820;2023-07-31T05:06:28;5.40;;;3.40;;
7383;SDS011;3733;47.994;8.820;2023-07-31T05:08:53;6.33;;;3.30;;
7383;SDS011;3733;47.994;8.820;2023-07-31T05:11:19;7.50;;;2.87;;
7383;SDS011;3733;47.994;8.820;2023-07-31T05:13:44;5.20;;;2.77;;
7383;SDS011;3733;47.994;8.820;2023-07-31T05:16:10;7.67;;;3.17;;
7383;SDS011;3733;47.994;8.820;2023-07-31T05:18:35;8.53;;;3.30;;
7383;SDS011;3733;47.994;8.820;2023-07-31T05:21:01;8.37;;;3.00;;
7383;SDS011;3733;47.994;8.820;2023-07-31T05:23:27;3.50;;;2.60;;
7383;SDS011;3733;47.994;8.820;2023-07-31T05:25:52;4.70;;;2.77;;
7383;SDS011;3733;47.994;8.820;2023-07-31T05:28:18;5.00;;;3.03;;
7383;SDS011;3733;47.994;8.820;2023-07-31T05:30:43;3.37;;;2.70;;
7383;SDS011;3733;47.994;8.820;2023-07-31T05:33:09;3.37;;;2.80;;
7383;SDS011;3733;47.994;8.820;2023-07-31T05:35:35;3.07;;;2.83;;
7383;SDS011;3733;47.994;8.820;2023-07-31T05:38:00;4.53;;;2.90;;
7383;SDS011;3733;47.994;8.820;2023-07-31T05:40:26;2.83;;;2.53;;
7383;SDS011;3733;47.994;8.820;2023-07-31T05:42:51;5.93;;;3.20;;
7383;SDS011;3733;47.994;8.820;2023-07-31T05:45:17;3.70;;;2.80;;
7383;SDS011;3733;47.994;8.820;2023-07-31T05:47:43;7.57;;;2.93;;
7383;SDS011;3733;47.994;8.820;2023-07-31T05:50:08;4.67;;;3.50;;
7383;SDS011;3733;47.994;8.820;2023-07-31T05:52:34;12.27;;;3.23;;
7383;SDS011;3733;47.994;8.820;2023-07-31T05:55:00;5.47;;;2.97;;
7383;SDS011;3733;47.994;8.820;2023-07-31T05:57:26;7.77;;;3.50;;
7383;SDS011;3733;47.994;8.820;2023-07-31T05:59:51;6.00;;;3.10;;
7383;SDS011;3733;47.994;8.820;2023-07-31T06:02:18;12.40;;;3.57;;
7383;SDS011;3733;47.994;8.820;2023-07-31T06:04:44;7.10;;;3.10;;
7383;SDS011;3733;47.994;8.820;2023-07-31T06:07:09;7.60;;;3.73;;
7383;SDS011;3733;47.994;8.820;2023-07-31T06:09:35;5.37;;;3.30;;
7383;SDS011;3733;47.994;8.820;2023-07-31T06:12:01;6.43;;;3.20;;
7383;SDS011;3733;47.994;8.820;2023-07-31T06:14:27;6.57;;;3.10;;
7383;SDS011;3733;47.994;8.820;2023-07-31T06:16:52;3.00;;;2.80;;
7383;SDS011;3733;47.994;8.820;2023-07-31T06:19:18;3.53;;;3.00;;
7383;SDS011;3733;47.994;8.820;2023-07-31T06:21:45;6.67;;;2.90;;
7383;SDS011;3733;47.994;8.820;2023-07-31T06:24:11;10.30;;;3.60;;
7383;SDS011;3733;47.994;8.820;2023-07-31T06:26:37;5.63;;;3.40;;
7383;SDS011;3733;47.994;8.820;2023-07-31T06:29:02;5.63;;;2.73;;
7383;SDS011;3733;47.994;8.820;2023-07-31T06:31:28;6.33;;;3.30;;
7383;SDS011;3733;47.994;8.820;2023-07-31T06:33:54;9.33;;;3.40;;
7383;SDS011;3733;47.994;8.820;2023-07-31T06:36:19;5.17;;;3.33;;
7383;SDS011;3733;47.994;8.820;2023-07-31T06:38:45;7.80;;;3.40;;
7383;SDS011;3733;47.994;8.820;2023-07-31T06:41:10;8.03;;;3.37;;
7383;SDS011;3733;47.994;8.820;2023-07-31T06:43:36;5.40;;;3.00;;
7383;SDS011;3733;47.994;8.820;2023-07-31T06:46:05;3.30;;;3.00;;
7383;SDS011;3733;47.994;8.820;2023-07-31T06:48:32;6.03;;;3.10;;
7383;SDS011;3733;47.994;8.820;2023-07-31T06:50:58;3.53;;;3.23;;
7383;SDS011;3733;47.994;8.820;2023-07-31T06:53:24;11.37;;;3.20;;
7383;SDS011;3733;47.994;8.820;2023-07-31T06:55:49;8.43;;;3.27;;
7383;SDS011;3733;47.994;8.820;2023-07-31T06:58:16;5.33;;;3.13;;
7383;SDS011;3733;47.994;8.820;2023-07-31T07:00:43;7.53;;;3.20;;
7383;SDS011;3733;47.994;8.820;2023-07-31T07:03:08;8.83;;;3.73;;
7383;SDS011;3733;47.994;8.820;2023-07-31T07:05:34;5.10;;;2.97;;
7383;SDS011;3733;47.994;8.820;2023-07-31T07:08:00;14.70;;;3.70;;
7383;SDS011;3733;47.994;8.820;2023-07-31T07:10:25;7.10;;;3.03;;
7383;SDS011;3733;47.994;8.820;2023-07-31T07:12:51;9.70;;;3.50;;
7383;SDS011;3733;47.994;8.820;2023-07-31T07:15:17;6.27;;;3.63;;
7383;SDS011;3733;47.994;8.820;2023-07-31T07:17:43;7.17;;;3.23;;
7383;SDS011;3733;47.994;8.820;2023-07-31T07:20:09;7.23;;;3.63;;
7383;SDS011;3733;47.994;8.820;2023-07-31T07:22:34;6.63;;;2.87;;
7383;SDS011;3733;47.994;8.820;2023-07-31T07:25:00;8.03;;;2.90;;
7383;SDS011;3733;47.994;8.820;2023-07-31T07:27:26;12.17;;;3.20;;
7383;SDS011;3733;47.994;8.820;2023-07-31T07:29:52;10.70;;;3.03;;
7383;SDS011;3733;47.994;8.820;2023-07-31T07:32:18;11.30;;;2.80;;
7383;SDS011;3733;47.994;8.820;2023-07-31T07:34:44;4.20;;;2.87;;
7383;SDS011;3733;47.994;8.820;2023-07-31T07:37:09;5.40;;;2.73;;
7383;SDS011;3733;47.994;8.820;2023-07-31T07:39:35;4.10;;;2.80;;
7383;SDS011;3733;47.994;8.820;2023-07-31T07:42:00;5.70;;;2.93;;
7383;SDS011;3733;47.994;8.820;2023-07-31T07:44:26;7.60;;;3.17;;
7383;SDS011;3733;47.994;8.820;2023-07-31T07:46:52;8.90;;;2.87;;
7383;SDS011;3733;47.994;8.820;2023-07-31T07:49:17;5.80;;;2.90;;
7383;SDS011;3733;47.994;8.820;2023-07-31T07:51:43;4.27;;;3.80;;
7383;SDS011;3733;47.994;8.820;2023-07-31T07:54:08;9.23;;;2.50;;
7383;SDS011;3733;47.994;8.820;2023-07-31T07:56:34;6.43;;;3.07;;
7383;SDS011;3733;47.994;8.820;2023-07-31T07:59:01;10.27;;;2.77;;
7383;SDS011;3733;47.994;8.820;2023-07-31T08:01:26;6.20;;;2.53;;
7383;SDS011;3733;47.994;8.820;2023-07-31T08:03:52;12.67;;;3.03;;
7383;SDS011;3733;47.994;8.820;2023-07-31T08:06:18;5.67;;;2.83;;
7383;SDS011;3733;47.994;8.820;2023-07-31T08:08:44;2.77;;;2.07;;
7383;SDS011;3733;47.994;8.820;2023-07-31T08:11:09;8.97;;;3.03;;
7383;SDS011;3733;47.994;8.820;2023-07-31T08:13:35;7.20;;;2.40;;
7383;SDS011;3733;47.994;8.820;2023-07-31T08:16:02;3.87;;;2.33;;
7383;SDS011;3733;47.994;8.820;2023-07-31T08:18:28;13.13;;;2.23;;
7383;SDS011;3733;47.994;8.820;2023-07-31T08:20:55;9.03;;;2.27;;
7383;SDS011;3733;47.994;8.820;2023-07-31T08:23:21;6.50;;;2.57;;
7383;SDS011;3733;47.994;8.820;2023-07-31T08:25:46;6.17;;;2.10;;
7383;SDS011;3733;47.994;8.820;2023-07-31T08:28:14;3.83;;;2.53;;
7383;SDS011;3733;47.994;8.820;2023-07-31T08:30:40;7.40;;;2.63;;
7383;SDS011;3733;47.994;8.820;2023-07-31T08:33:07;5.50;;;2.50;;
7383;SDS011;3733;47.994;8.820;2023-07-31T08:35:32;5.53;;;2.20;;
7383;SDS011;3733;47.994;8.820;2023-07-31T08:37:58;4.37;;;2.47;;
7383;SDS011;3733;47.994;8.820;2023-07-31T08:40:24;3.40;;;2.37;;
7383;SDS011;3733;47.994;8.820;2023-07-31T08:42:54;6.87;;;2.33;;
7383;SDS011;3733;47.994;8.820;2023-07-31T08:45:22;4.10;;;2.30;;
7383;SDS011;3733;47.994;8.820;2023-07-31T08:47:51;4.70;;;2.30;;
7383;SDS011;3733;47.994;8.820;2023-07-31T08:50:18;7.37;;;2.90;;
7383;SDS011;3733;47.994;8.820;2023-07-31T08:52:48;5.17;;;2.20;;
7383;SDS011;3733;47.994;8.820;2023-07-31T08:55:14;8.37;;;2.60;;
7383;SDS011;3733;47.994;8.820;2023-07-31T08:57:41;6.53;;;2.70;;
7383;SDS011;3733;47.994;8.820;2023-07-31T09:00:08;10.10;;;2.37;;
7383;SDS011;3733;47.994;8.820;2023-07-31T09:02:37;6.53;;;2.70;;
7383;SDS011;3733;47.994;8.820;2023-07-31T09:05:22;6.63;;;2.57;;
7383;SDS011;3733;47.994;8.820;2023-07-31T09:07:51;4.37;;;2.40;;
7383;SDS011;3733;47.994;8.820;2023-07-31T09:10:16;7.30;;;2.60;;
7383;SDS011;3733;47.994;8.820;2023-07-31T09:12:42;7.90;;;2.50;;
7383;SDS011;3733;47.994;8.820;2023-07-31T09:15:08;6.07;;;2.03;;
7383;SDS011;3733;47.994;8.820;2023-07-31T09:17:35;4.77;;;2.50;;
7383;SDS011;3733;47.994;8.820;2023-07-31T09:20:15;7.40;;;2.70;;
7383;SDS011;3733;47.994;8.820;2023-07-31T09:22:42;5.07;;;2.53;;
7383;SDS011;3733;47.994;8.820;2023-07-31T09:25:19;12.57;;;3.37;;
7383;SDS011;3733;47.994;8.820;2023-07-31T09:30:24;3.17;;;2.20;;
7383;SDS011;3733;47.994;8.820;2023-07-31T09:32:51;3.73;;;2.10;;
7383;SDS011;3733;47.994;8.820;2023-07-31T09:35:31;10.37;;;1.90;;
7383;SDS011;3733;47.994;8.820;2023-07-31T09:37:59;6.37;;;2.30;;
7383;SDS011;3733;47.994;8.820;2023-07-31T09:40:29;4.07;;;2.37;;
7383;SDS011;3733;47.994;8.820;2023-07-31T09:42:59;3.20;;;1.97;;
7383;SDS011;3733;47.994;8.820;2023-07-31T09:45:29;6.00;;;2.70;;
7383;SDS011;3733;47.994;8.820;2023-07-31T09:47:55;3.57;;;2.37;;
7383;SDS011;3733;47.994;8.820;2023-07-31T09:50:22;4.83;;;2.23;;
7383;SDS011;3733;47.994;8.820;2023-07-31T09:52:49;3.93;;;2.10;;
7383;SDS011;3733;47.994;8.820;2023-07-31T09:55:18;4.43;;;2.17;;
7383;SDS011;3733;47.994;8.820;2023-07-31T09:57:47;5.43;;;2.30;;
7383;SDS011;3733;47.994;8.820;2023-07-31T10:00:15;4.00;;;2.30;;
7383;SDS011;3733;47.994;8.820;2023-07-31T10:02:41;5.13;;;2.53;;
7383;SDS011;3733;47.994;8.820;2023-07-31T10:05:10;8.27;;;2.97;;
7383;SDS011;3733;47.994;8.820;2023-07-31T10:07:42;5.40;;;2.40;;
7383;SDS011;3733;47.994;8.820;2023-07-31T10:10:13;5.20;;;2.40;;
7383;SDS011;3733;47.994;8.820;2023-07-31T10:12:41;4.77;;;2.77;;
7383;SDS011;3733;47.994;8.820;2023-07-31T10:15:08;6.73;;;2.57;;
7383;SDS011;3733;47.994;8.820;2023-07-31T10:17:35;4.93;;;2.67;;
7383;SDS011;3733;47.994;8.820;2023-07-31T10:20:02;4.63;;;2.80;;
7383;SDS011;3733;47.994;8.820;2023-07-31T10:22:30;4.60;;;2.10;;
7383;SDS011;3733;47.994;8.820;2023-07-31T10:24:57;6.33;;;2.60;;
7383;SDS011;3733;47.994;8.820;2023-07-31T10:27:24;5.57;;;2.63;;
7383;SDS011;3733;47.994;8.820;2023-07-31T10:29:49;3.87;;;1.93;;
7383;SDS011;3733;47.994;8.820;2023-07-31T10:32:17;6.50;;;2.37;;
7383;SDS011;3733;47.994;8.820;2023-07-31T10:34:43;6.70;;;2.50;;
7383;SDS011;3733;47.994;8.820;2023-07-31T10:42:26;2.83;;;2.13;;
7383;SDS011;3733;47.994;8.820;2023-07-31T10:44:57;5.90;;;2.10;;
7383;SDS011;3733;47.994;8.820;2023-07-31T10:47:24;5.97;;;3.03;;
7383;SDS011;3733;47.994;8.820;2023-07-31T10:49:50;4.40;;;2.80;;
7383;SDS011;3733;47.994;8.820;2023-07-31T10:52:19;12.30;;;2.63;;
7383;SDS011;3733;47.994;8.820;2023-07-31T10:54:49;6.17;;;2.63;;
7383;SDS011;3733;47.994;8.820;2023-07-31T10:57:19;5.60;;;2.30;;
7383;SDS011;3733;47.994;8.820;2023-07-31T10:59:49;2.90;;;2.07;;
7383;SDS011;3733;47.994;8.820;2023-07-31T11:02:33;3.27;;;2.10;;
7383;SDS011;3733;47.994;8.820;2023-07-31T11:05:08;2.67;;;2.03;;
7383;SDS011;3733;47.994;8.820;2023-07-31T11:07:49;2.10;;;1.90;;
7383;SDS011;3733;47.994;8.820;2023-07-31T11:10:18;3.03;;;2.20;;
7383;SDS011;3733;47.994;8.820;2023-07-31T11:12:47;4.03;;;2.07;;
7383;SDS011;3733;47.994;8.820;2023-07-31T11:15:12;4.63;;;2.10;;
7383;SDS011;3733;47.994;8.820;2023-07-31T11:17:39;5.87;;;2.47;;
7383;SDS011;3733;47.994;8.820;2023-07-31T11:20:05;5.50;;;2.40;;
7383;SDS011;3733;47.994;8.820;2023-07-31T11:22:32;6.83;;;2.60;;
7383;SDS011;3733;47.994;8.820;2023-07-31T11:24:59;4.00;;;2.10;;
7383;SDS011;3733;47.994;8.820;2023-07-31T11:27:27;5.37;;;2.07;;
7383;SDS011;3733;47.994;8.820;2023-07-31T11:29:59;3.70;;;2.20;;
7383;SDS011;3733;47.994;8.820;2023-07-31T11:32:26;6.20;;;2.67;;
7383;SDS011;3733;47.994;8.820;2023-07-31T11:34:52;3.60;;;2.23;;
7383;SDS011;3733;47.994;8.820;2023-07-31T11:37:18;5.90;;;2.43;;
7383;SDS011;3733;47.994;8.820;2023-07-31T11:39:57;12.23;;;2.67;;
7383;SDS011;3733;47.994;8.820;2023-07-31T11:42:26;4.27;;;2.27;;
7383;SDS011;3733;47.994;8.820;2023-07-31T11:44:52;5.07;;;2.70;;
7383;SDS011;3733;47.994;8.820;2023-07-31T11:47:18;7.30;;;2.80;;
7383;SDS011;3733;47.994;8.820;2023-07-31T11:49:44;4.47;;;1.97;;
7383;SDS011;3733;47.994;8.820;2023-07-31T11:52:10;5.70;;;2.43;;
7383;SDS011;3733;47.994;8.820;2023-07-31T11:54:37;4.63;;;2.10;;
7383;SDS011;3733;47.994;8.820;2023-07-31T11:57:05;5.47;;;3.03;;
7383;SDS011;3733;47.994;8.820;2023-07-31T11:59:31;3.50;;;2.20;;
7383;SDS011;3733;47.994;8.820;2023-07-31T12:01:57;3.73;;;2.17;;
7383;SDS011;3733;47.994;8.820;2023-07-31T12:04:23;4.60;;;2.07;;
7383;SDS011;3733;47.994;8.820;2023-07-31T12:06:49;2.90;;;2.10;;
7383;SDS011;3733;47.994;8.820;2023-07-31T12:09:17;3.33;;;2.20;;
7383;SDS011;3733;47.994;8.820;2023-07-31T12:11:43;3.20;;;2.20;;
7383;SDS011;3733;47.994;8.820;2023-07-31T12:17:06;3.90;;;2.20;;
7383;SDS011;3733;47.994;8.820;2023-07-31T12:19:33;4.13;;;2.70;;
7383;SDS011;3733;47.994;8.820;2023-07-31T12:22:00;6.10;;;2.77;;
7383;SDS011;3733;47.994;8.820;2023-07-31T12:24:26;3.00;;;2.20;;
7383;SDS011;3733;47.994;8.820;2023-07-31T12:26:52;5.40;;;3.30;;
7383;SDS011;3733;47.994;8.820;2023-07-31T12:29:18;6.23;;;2.50;;
7383;SDS011;3733;47.994;8.820;2023-07-31T12:31:43;10.10;;;3.67;;
7383;SDS011;3733;47.994;8.820;2023-07-31T12:34:15;3.60;;;2.50;;
7383;SDS011;3733;47.994;8.820;2023-07-31T12:36:43;4.83;;;2.70;;
7383;SDS011;3733;47.994;8.820;2023-07-31T12:39:09;5.50;;;2.67;;
7383;SDS011;3733;47.994;8.820;2023-07-31T12:41:35;4.33;;;2.50;;
7383;SDS011;3733;47.994;8.820;2023-07-31T12:44:00;5.50;;;2.93;;
7383;SDS011;3733;47.994;8.820;2023-07-31T12:46:26;7.40;;;2.97;;
7383;SDS011;3733;47.994;8.820;2023-07-31T12:48:51;3.53;;;2.37;;
7383;SDS011;3733;47.994;8.820;2023-07-31T12:51:17;5.13;;;2.70;;
7383;SDS011;3733;47.994;8.820;2023-07-31T12:53:43;7.07;;;2.97;;
7383;SDS011;3733;47.994;8.820;2023-07-31T12:56:08;6.83;;;2.50;;
7383;SDS011;3733;47.994;8.820;2023-07-31T12:58:34;14.37;;;3.13;;
7383;SDS011;3733;47.994;8.820;2023-07-31T13:00:59;3.10;;;2.40;;
7383;SDS011;3733;47.994;8.820;2023-07-31T13:03:26;6.00;;;3.07;;
7383;SDS011;3733;47.994;8.820;2023-07-31T13:05:52;4.00;;;2.50;;
7383;SDS011;3733;47.994;8.820;2023-07-31T13:08:18;6.97;;;3.03;;
7383;SDS011;3733;47.994;8.820;2023-07-31T13:10:43;5.67;;;2.70;;
7383;SDS011;3733;47.994;8.820;2023-07-31T13:13:09;9.93;;;2.70;;
7383;SDS011;3733;47.994;8.820;2023-07-31T13:15:35;6.03;;;3.17;;
7383;SDS011;3733;47.994;8.820;2023-07-31T13:18:00;7.43;;;2.70;;
7383;SDS011;3733;47.994;8.820;2023-07-31T13:20:26;6.20;;;2.80;;
7383;SDS011;3733;47.994;8.820;2023-07-31T13:22:52;8.40;;;2.93;;
7383;SDS011;3733;47.994;8.820;2023-07-31T13:25:17;7.77;;;2.73;;
7383;SDS011;3733;47.994;8.820;2023-07-31T13:27:43;2.60;;;2.20;;
7383;SDS011;3733;47.994;8.820;2023-07-31T13:30:09;4.80;;;2.90;;
7383;SDS011;3733;47.994;8.820;2023-07-31T13:32:34;4.73;;;3.00;;
7383;SDS011;3733;47.994;8.820;2023-07-31T13:35:04;8.10;;;3.57;;
7383;SDS011;3733;47.994;8.820;2023-07-31T13:37:34;4.47;;;2.83;;
7383;SDS011;3733;47.994;8.820;2023-07-31T13:40:00;13.00;;;2.90;;
7383;SDS011;3733;47.994;8.820;2023-07-31T13:42:26;3.73;;;2.87;;
7383;SDS011;3733;47.994;8.820;2023-07-31T13:44:53;6.00;;;3.00;;
7383;SDS011;3733;47.994;8.820;2023-07-31T13:47:21;4.30;;;2.60;;
7383;SDS011;3733;47.994;8.820;2023-07-31T13:49:46;7.63;;;2.97;;
7383;SDS011;3733;47.994;8.820;2023-07-31T13:52:12;5.23;;;2.77;;
7383;SDS011;3733;47.994;8.820;2023-07-31T13:54:37;4.90;;;2.57;;
7383;SDS011;3733;47.994;8.820;2023-07-31T13:57:03;6.73;;;2.53;;
7383;SDS011;3733;47.994;8.820;2023-07-31T13:59:29;8.50;;;3.33;;
7383;SDS011;3733;47.994;8.820;2023-07-31T14:01:54;10.73;;;2.83;;
7383;SDS011;3733;47.994;8.820;2023-07-31T14:04:20;5.47;;;2.80;;
7383;SDS011;3733;47.994;8.820;2023-07-31T14:06:46;6.17;;;3.10;;
7383;SDS011;3733;47.994;8.820;2023-07-31T14:09:13;5.90;;;3.33;;
7383;SDS011;3733;47.994;8.820;2023-07-31T14:11:39;5.57;;;3.53;;
7383;SDS011;3733;47.994;8.820;2023-07-31T14:14:05;4.97;;;3.57;;
7383;SDS011;3733;47.994;8.820;2023-07-31T14:16:30;5.63;;;3.90;;
7383;SDS011;3733;47.994;8.820;2023-07-31T14:18:56;4.63;;;3.27;;
7383;SDS011;3733;47.994;8.820;2023-07-31T14:21:24;5.40;;;3.40;;
7383;SDS011;3733;47.994;8.820;2023-07-31T14:23:50;6.83;;;4.03;;
7383;SDS011;3733;47.994;8.820;2023-07-31T14:26:15;7.47;;;4.07;;
7383;SDS011;3733;47.994;8.820;2023-07-31T14:28:41;4.90;;;3.70;;
7383;SDS011;3733;47.994;8.820;2023-07-31T14:31:07;7.27;;;4.50;;
7383;SDS011;3733;47.994;8.820;2023-07-31T14:33:33;9.57;;;4.70;;
7383;SDS011;3733;47.994;8.820;2023-07-31T14:35:58;8.27;;;3.90;;
7383;SDS011;3733;47.994;8.820;2023-07-31T14:38:24;4.60;;;3.20;;
7383;SDS011;3733;47.994;8.820;2023-07-31T14:40:50;6.17;;;3.77;;
7383;SDS011;3733;47.994;8.820;2023-07-31T14:43:17;4.40;;;3.43;;
7383;SDS011;3733;47.994;8.820;2023-07-31T14:45:42;4.40;;;3.40;;
7383;SDS011;3733;47.994;8.820;2023-07-31T14:48:08;6.87;;;4.00;;
7383;SDS011;3733;47.994;8.820;2023-07-31T14:50:34;8.67;;;4.10;;
7383;SDS011;3733;47.994;8.820;2023-07-31T14:52:59;4.73;;;3.40;;
7383;SDS011;3733;47.994;8.820;2023-07-31T14:55:25;5.47;;;3.33;;
7383;SDS011;3733;47.994;8.820;2023-07-31T14:57:51;5.43;;;3.73;;
7383;SDS011;3733;47.994;8.820;2023-07-31T15:00:16;8.80;;;3.80;;
7383;SDS011;3733;47.994;8.820;2023-07-31T15:02:42;5.10;;;3.27;;
7383;SDS011;3733;47.994;8.820;2023-07-31T15:05:08;4.77;;;3.40;;
7383;SDS011;3733;47.994;8.820;2023-07-31T15:07:33;8.53;;;3.30;;
7383;SDS011;3733;47.994;8.820;2023-07-31T15:10:00;6.40;;;4.00;;
7383;SDS011;3733;47.994;8.820;2023-07-31T15:12:27;6.70;;;3.97;;
7383;SDS011;3733;47.994;8.820;2023-07-31T15:14:53;8.03;;;3.77;;
7383;SDS011;3733;47.994;8.820;2023-07-31T15:17:19;8.30;;;3.50;;
7383;SDS011;3733;47.994;8.820;2023-07-31T15:19:45;6.30;;;3.67;;
7383;SDS011;3733;47.994;8.820;2023-07-31T15:22:11;5.33;;;3.17;;
7383;SDS011;3733;47.994;8.820;2023-07-31T15:24:36;4.73;;;3.40;;
7383;SDS011;3733;47.994;8.820;2023-07-31T15:27:02;7.97;;;4.20;;